Time;durP1;ratioP1;P1;durP2;ratioP2;P2;SDS_P1;SDS_P2;PMS_P1;PMS_P2;Temp;Humidity;BMP_temperature;BMP_pressure;BME280_temperature;BME280_humidity;BME280_pressure;Samples;Min_cycle;Max_cycle;Signal;HPM_P1;HPM_P2
2022/12/22 03:26:18;;;;;;;58.63;28.75;;;13.40;99.90;;;;;;5001541;28;20045;-93
2022/12/22 03:28:45;;;;;;;72.00;29.50;;;13.40;99.90;;;;;;4981582;28;20057;-93
2022/12/22 03:31:11;;;;;;;65.07;28.60;;;13.40;99.90;;;;;;4981751;28;20034;-93
2022/12/22 03:33:37;;;;;;;72.10;28.40;;;13.40;99.90;;;;;;4966605;28;20042;-93
2022/12/22 03:36:04;;;;;;;69.10;29.10;;;13.40;99.90;;;;;;4982272;28;20035;-93
2022/12/22 03:38:30;;;;;;;73.25;30.23;;;13.40;99.90;;;;;;4999702;28;20030;-93
2022/12/22 03:40:56;;;;;;;63.03;28.60;;;13.40;99.90;;;;;;4997722;28;20038;-93
2022/12/22 03:46:30;;;;;;;59.58;28.35;;;13.40;99.90;;;;;;4999159;28;20111;-92
2022/12/22 03:49:08;;;;;;;64.93;29.27;;;13.40;99.90;;;;;;4984587;28;20035;-92
2022/12/22 03:51:41;;;;;;;69.43;30.27;;;13.40;99.90;;;;;;4990771;28;20648;-93
2022/12/22 03:54:07;;;;;;;60.22;28.02;;;13.40;99.90;;;;;;4998093;28;20042;-93
2022/12/22 03:56:33;;;;;;;63.97;31.38;;;13.40;99.90;;;;;;4981946;28;20046;-93
2022/12/22 03:59:00;;;;;;;65.95;30.38;;;13.50;99.90;;;;;;4979688;28;20053;-93
2022/12/22 04:01:26;;;;;;;63.10;30.65;;;13.50;99.90;;;;;;4995450;28;20070;-93
2022/12/22 04:03:52;;;;;;;62.65;29.25;;;13.50;99.90;;;;;;4983032;28;20510;-93
2022/12/22 04:06:18;;;;;;;67.22;32.13;;;13.50;99.90;;;;;;4998032;28;20042;-93
2022/12/22 04:08:44;;;;;;;71.13;31.90;;;13.50;99.90;;;;;;4994605;28;20491;-92
2022/12/22 04:13:55;;;;;;;76.18;30.45;;;13.50;99.90;;;;;;4997749;28;20591;-93
2022/12/22 04:16:22;;;;;;;60.38;29.52;;;13.40;99.90;;;;;;4974528;28;20049;-92
2022/12/22 04:18:48;;;;;;;63.95;32.38;;;13.40;99.90;;;;;;5007172;28;20387;-93
2022/12/22 04:21:14;;;;;;;66.07;32.60;;;13.40;99.90;;;;;;4973847;28;20073;-92
2022/12/22 04:23:40;;;;;;;64.32;30.88;;;13.40;99.90;;;;;;4990514;28;20038;-92
2022/12/22 04:26:06;;;;;;;67.53;33.15;;;13.40;99.90;;;;;;4991631;28;20394;-92
2022/12/22 04:28:32;;;;;;;61.47;31.45;;;13.40;99.90;;;;;;4993037;28;20038;-93
2022/12/22 04:30:58;;;;;;;64.55;34.17;;;13.40;99.90;;;;;;4991893;28;20045;-92
2022/12/22 04:33:25;;;;;;;62.20;36.67;;;13.40;99.90;;;;;;4975491;28;20026;-92
2022/12/22 04:35:51;;;;;;;75.05;35.53;;;13.40;99.90;;;;;;4981359;28;20035;-92
2022/12/22 04:38:17;;;;;;;58.45;30.73;;;13.40;99.90;;;;;;4992059;28;20419;-93
2022/12/22 04:40:43;;;;;;;62.72;33.80;;;13.40;99.90;;;;;;4992514;28;20026;-93
2022/12/22 04:43:09;;;;;;;66.40;32.25;;;13.40;99.90;;;;;;4976372;28;20046;-93
2022/12/22 04:45:35;;;;;;;56.25;32.58;;;13.40;99.90;;;;;;4991695;28;20050;-92
2022/12/22 04:48:01;;;;;;;71.35;33.08;;;13.40;99.90;;;;;;4989441;28;20487;-92
2022/12/22 04:50:27;;;;;;;70.72;33.22;;;13.40;99.90;;;;;;4974207;28;20042;-94
2022/12/22 04:52:53;;;;;;;58.53;32.40;;;13.40;99.90;;;;;;4975984;28;20497;-93
2022/12/22 04:55:19;;;;;;;67.68;37.50;;;13.40;99.90;;;;;;4990729;28;20038;-93
2022/12/22 04:57:45;;;;;;;71.95;33.08;;;13.40;99.90;;;;;;4993766;28;20031;-93
2022/12/22 05:00:12;;;;;;;68.00;30.65;;;13.40;99.90;;;;;;5008050;28;20034;-93
2022/12/22 05:02:38;;;;;;;70.60;30.88;;;13.40;99.90;;;;;;4976799;28;20475;-92
2022/12/22 05:05:05;;;;;;;71.72;34.15;;;13.50;99.90;;;;;;4978834;28;20046;-93
2022/12/22 05:07:31;;;;;;;64.95;30.88;;;13.50;99.90;;;;;;4995660;28;20041;-94
2022/12/22 05:09:57;;;;;;;67.45;37.63;;;13.40;99.90;;;;;;4992761;28;20034;-92
2022/12/22 05:15:08;;;;;;;68.38;28.60;;;13.40;99.90;;;;;;4982130;28;20053;-93
2022/12/22 05:17:34;;;;;;;61.65;29.80;;;13.40;99.90;;;;;;4969947;28;20053;-92
2022/12/22 05:20:00;;;;;;;70.47;29.15;;;13.40;99.90;;;;;;4994918;28;20030;-90
2022/12/22 05:22:26;;;;;;;63.63;28.02;;;13.40;99.90;;;;;;4977629;28;20054;-90
2022/12/22 05:24:52;;;;;;;50.25;31.30;;;13.40;99.90;;;;;;4994959;28;20043;-91
2022/12/22 05:27:19;;;;;;;64.95;30.75;;;13.40;99.90;;;;;;5010856;28;20034;-90
2022/12/22 05:29:45;;;;;;;70.55;33.03;;;13.40;99.90;;;;;;4994007;28;20038;-92
2022/12/22 05:32:11;;;;;;;69.68;35.05;;;13.40;99.90;;;;;;4988718;28;20042;-92
2022/12/22 05:34:37;;;;;;;66.38;30.38;;;13.40;99.90;;;;;;5009815;28;20361;-91
2022/12/22 05:37:03;;;;;;;61.17;31.00;;;13.40;99.90;;;;;;5010346;28;20035;-91
2022/12/22 05:39:29;;;;;;;67.03;31.98;;;13.50;99.90;;;;;;5010376;28;20065;-91
2022/12/22 05:41:55;;;;;;;77.05;34.63;;;13.50;99.90;;;;;;4994122;28;20341;-90
2022/12/22 05:44:21;;;;;;;57.55;31.45;;;13.40;99.90;;;;;;4993655;28;20034;-91
2022/12/22 05:46:51;;;;;;;70.35;31.95;;;13.40;99.90;;;;;;5007975;28;20049;-90
2022/12/22 05:49:17;;;;;;;62.92;30.13;;;13.40;99.90;;;;;;4994119;28;20049;-90
2022/12/22 05:51:44;;;;;;;71.25;33.15;;;13.40;99.90;;;;;;4994092;28;20038;-90
2022/12/22 05:54:10;;;;;;;63.10;32.08;;;13.40;99.90;;;;;;5010500;28;20492;-90
2022/12/22 05:56:36;;;;;;;69.00;35.17;;;13.40;99.90;;;;;;4997476;28;20030;-91
2022/12/22 05:59:02;;;;;;;58.83;33.85;;;13.50;99.90;;;;;;4985805;28;20038;-92
2022/12/22 06:01:29;;;;;;;66.32;36.58;;;13.50;99.90;;;;;;4990657;28;20038;-92
2022/12/22 06:03:55;;;;;;;69.10;34.50;;;13.50;99.90;;;;;;4993581;28;20042;-90
2022/12/22 06:06:21;;;;;;;64.15;30.80;;;13.40;99.90;;;;;;4993249;28;20035;-90
2022/12/22 06:08:47;;;;;;;59.53;31.45;;;13.50;99.90;;;;;;4993119;28;20057;-91
2022/12/22 06:11:17;;;;;;;58.22;29.90;;;13.50;99.90;;;;;;5009114;28;20042;-90
2022/12/22 06:13:44;;;;;;;64.80;30.20;;;13.40;99.90;;;;;;4993378;28;20487;-90
2022/12/22 06:16:10;;;;;;;65.78;29.15;;;13.40;99.90;;;;;;4991854;28;20035;-88
2022/12/22 06:18:36;;;;;;;63.35;28.20;;;13.40;99.90;;;;;;4991816;28;20041;-88
2022/12/22 06:21:02;;;;;;;57.38;29.30;;;13.40;99.90;;;;;;5007305;28;20077;-88
2022/12/22 06:23:28;;;;;;;56.08;27.98;;;13.40;99.90;;;;;;4992597;28;20483;-88
2022/12/22 06:25:56;;;;;;;57.53;26.27;;;13.40;99.90;;;;;;5008596;28;20038;-88
2022/12/22 06:28:22;;;;;;;56.65;27.33;;;13.40;99.90;;;;;;4992729;28;20038;-89
2022/12/22 06:30:48;;;;;;;54.53;27.25;;;13.40;99.90;;;;;;5008607;28;20031;-88
2022/12/22 06:33:14;;;;;;;66.38;24.15;;;13.40;99.90;;;;;;4991401;28;20050;-91
2022/12/22 06:35:40;;;;;;;58.20;26.10;;;13.40;99.90;;;;;;4991624;28;20058;-91
2022/12/22 06:38:06;;;;;;;65.28;26.02;;;13.40;99.90;;;;;;4975843;28;20034;-93
2022/12/22 06:40:32;;;;;;;55.58;25.98;;;13.40;99.90;;;;;;4988541;28;20034;-93
2022/12/22 06:43:07;;;;;;;63.38;28.60;;;13.40;99.90;;;;;;5010942;28;20395;-92
2022/12/22 06:45:38;;;;;;;56.33;26.40;;;13.40;99.90;;;;;;5008764;28;20108;-92
2022/12/22 06:48:04;;;;;;;50.03;23.65;;;13.40;99.90;;;;;;5008712;28;20444;-91
2022/12/22 06:50:30;;;;;;;53.88;25.45;;;13.40;99.90;;;;;;4970753;28;20041;-94
2022/12/22 06:52:57;;;;;;;68.35;27.23;;;13.40;99.90;;;;;;4994171;28;20033;-93
2022/12/22 06:55:23;;;;;;;72.18;27.27;;;13.40;99.90;;;;;;4994537;28;20379;-92
2022/12/22 06:57:49;;;;;;;60.70;30.25;;;13.40;99.90;;;;;;5007886;28;20045;-92
2022/12/22 07:00:15;;;;;;;57.47;29.67;;;13.40;99.90;;;;;;5008453;28;20053;-92
2022/12/22 07:02:41;;;;;;;66.28;33.92;;;13.40;99.90;;;;;;4993023;28;20058;-91
2022/12/22 07:05:07;;;;;;;64.85;32.38;;;13.40;99.90;;;;;;5008334;28;20026;-92
2022/12/22 07:07:34;;;;;;;70.35;34.40;;;13.40;99.90;;;;;;4992763;28;20038;-93
2022/12/22 07:10:00;;;;;;;67.68;33.90;;;13.40;99.90;;;;;;4960910;28;20365;-92
2022/12/22 07:12:26;;;;;;;62.67;33.05;;;13.40;99.90;;;;;;5007860;28;20038;-94
2022/12/22 07:14:52;;;;;;;68.18;35.58;;;13.40;99.90;;;;;;4993071;28;20038;-91
2022/12/22 07:17:18;;;;;;;72.70;37.70;;;13.40;99.90;;;;;;5008690;28;20038;-91
2022/12/22 07:19:44;;;;;;;72.45;35.97;;;13.40;99.90;;;;;;5007408;28;20030;-92
2022/12/22 07:22:10;;;;;;;66.28;36.53;;;13.40;99.90;;;;;;4990311;28;20049;-91
2022/12/22 07:24:36;;;;;;;61.90;36.22;;;13.40;99.90;;;;;;4990600;28;20034;-92
2022/12/22 07:27:02;;;;;;;69.38;36.78;;;13.40;99.90;;;;;;4991814;28;20101;-91
2022/12/22 07:29:29;;;;;;;63.08;35.22;;;13.40;99.90;;;;;;4975534;28;20042;-91
2022/12/22 07:31:55;;;;;;;69.88;42.00;;;13.40;99.90;;;;;;4975104;28;20495;-91
2022/12/22 07:34:21;;;;;;;61.30;38.45;;;13.40;99.90;;;;;;4993487;28;20037;-93
2022/12/22 07:36:47;;;;;;;70.55;44.00;;;13.30;99.90;;;;;;4994218;28;20479;-91
2022/12/22 07:39:13;;;;;;;61.75;41.60;;;13.40;99.90;;;;;;4976659;28;20037;-91
2022/12/22 07:44:24;;;;;;;69.95;38.55;;;13.30;99.90;;;;;;4974593;28;20054;-90
2022/12/22 07:46:50;;;;;;;71.90;42.30;;;13.30;99.90;;;;;;4991382;28;20042;-92
2022/12/22 07:52:00;;;;;;;67.65;39.05;;;13.30;99.90;;;;;;4993191;28;20049;-94
2022/12/22 07:54:26;;;;;;;78.80;44.35;;;13.30;99.90;;;;;;4965713;28;20050;-91
2022/12/22 07:56:52;;;;;;;73.70;41.70;;;13.30;99.90;;;;;;5005059;28;20057;-93
2022/12/22 07:59:19;;;;;;;68.85;44.72;;;13.30;99.90;;;;;;4976961;28;20042;-92
2022/12/22 08:01:45;;;;;;;79.40;45.80;;;13.30;99.90;;;;;;4976530;28;20050;-92
2022/12/22 08:04:11;;;;;;;74.07;43.55;;;13.30;99.90;;;;;;4996329;28;20038;-93
2022/12/22 08:06:38;;;;;;;64.20;45.40;;;13.30;99.90;;;;;;5003247;28;20038;-92
2022/12/22 08:09:04;;;;;;;69.93;43.67;;;13.40;99.90;;;;;;5015009;28;20038;-93
2022/12/22 08:11:31;;;;;;;73.25;45.45;;;13.40;99.90;;;;;;4983750;28;20030;-90
2022/12/22 08:13:57;;;;;;;74.90;46.53;;;13.40;99.90;;;;;;4984141;28;20026;-92
2022/12/22 08:16:23;;;;;;;70.15;43.22;;;13.40;99.90;;;;;;5000416;28;20502;-93
2022/12/22 08:18:49;;;;;;;69.05;41.78;;;13.40;99.90;;;;;;4985172;28;20042;-94
2022/12/22 08:21:15;;;;;;;65.18;41.28;;;13.40;99.90;;;;;;5000765;28;20035;-92
2022/12/22 08:23:41;;;;;;;63.63;41.45;;;13.40;99.90;;;;;;5000720;28;20046;-92
2022/12/22 08:26:15;;;;;;;66.60;40.00;;;13.40;99.90;;;;;;5001673;28;20038;-92
2022/12/22 08:28:57;;;;;;;65.78;39.55;;;13.40;99.90;;;;;;4999755;28;20045;-93
2022/12/22 08:31:24;;;;;;;70.45;34.72;;;13.40;99.90;;;;;;4988967;28;20039;-88
2022/12/22 08:33:50;;;;;;;60.85;34.33;;;13.40;99.90;;;;;;4979885;28;20402;-90
2022/12/22 08:36:17;;;;;;;67.85;32.83;;;13.40;99.90;;;;;;5010226;28;20041;-91
2022/12/22 08:38:43;;;;;;;70.60;35.42;;;13.50;99.90;;;;;;4998486;28;20035;-91
2022/12/22 08:41:10;;;;;;;62.22;35.17;;;13.50;99.90;;;;;;4980489;28;20022;-92
2022/12/22 08:43:36;;;;;;;62.28;32.30;;;13.50;99.90;;;;;;4986260;28;20038;-90
2022/12/22 08:46:02;;;;;;;67.40;34.75;;;13.50;99.90;;;;;;4980621;28;20046;-91
2022/12/22 08:48:29;;;;;;;63.20;33.50;;;13.50;99.90;;;;;;5005127;28;20391;-90
2022/12/22 08:50:55;;;;;;;72.15;31.70;;;13.50;99.90;;;;;;5000199;28;20033;-90
2022/12/22 08:53:21;;;;;;;66.47;30.20;;;13.50;99.90;;;;;;4967118;28;20039;-88
2022/12/22 08:55:52;;;;;;;63.47;30.88;;;13.50;99.90;;;;;;4995918;28;20041;-89
2022/12/22 08:58:18;;;;;;;69.45;31.83;;;13.60;99.90;;;;;;4982545;28;20027;-89
2022/12/22 09:00:44;;;;;;;62.22;29.33;;;13.60;99.90;;;;;;4998967;28;20042;-94
2022/12/22 09:03:10;;;;;;;70.25;32.13;;;13.60;99.90;;;;;;4986890;28;20038;-94
2022/12/22 09:05:37;;;;;;;67.18;32.30;;;13.60;99.90;;;;;;5002856;28;20036;-94
2022/12/22 09:08:04;;;;;;;71.88;32.28;;;13.60;99.90;;;;;;4995950;28;20483;-89
2022/12/22 09:10:30;;;;;;;71.25;35.47;;;13.60;99.90;;;;;;4988320;28;20495;-93
2022/12/22 09:12:57;;;;;;;61.47;32.63;;;13.60;99.90;;;;;;4993467;28;20081;-91
2022/12/22 09:15:23;;;;;;;67.72;37.08;;;13.60;99.90;;;;;;4995310;28;20381;-92
2022/12/22 09:17:49;;;;;;;69.93;41.92;;;13.70;99.90;;;;;;5002904;28;20034;-92
2022/12/22 09:20:15;;;;;;;64.18;40.80;;;13.60;99.90;;;;;;5002175;28;20471;-95
2022/12/22 09:22:42;;;;;;;70.18;44.20;;;13.70;99.90;;;;;;5036074;23;20408;-85
2022/12/22 09:27:43;;;;;;;73.75;42.88;;;13.70;99.90;;;;;;4994684;28;20077;-95
2022/12/22 09:30:09;;;;;;;65.78;47.25;;;13.70;99.90;;;;;;4996812;28;20038;-94
2022/12/22 09:32:35;;;;;;;84.03;51.97;;;13.80;99.90;;;;;;4996677;28;20399;-93
2022/12/22 09:35:02;;;;;;;75.97;53.85;;;13.80;99.90;;;;;;4973598;28;20038;-91
2022/12/22 09:37:28;;;;;;;70.10;48.97;;;13.80;99.90;;;;;;4996073;28;20042;-95
2022/12/22 09:39:54;;;;;;;69.55;50.30;;;13.80;99.90;;;;;;4994912;28;20041;-91
2022/12/22 09:42:20;;;;;;;71.45;51.90;;;13.80;99.90;;;;;;4991371;28;20480;-90
2022/12/22 09:44:49;;;;;;;78.57;54.22;;;13.80;99.90;;;;;;4974480;28;20053;-86
2022/12/22 09:47:23;;;;;;;73.00;56.20;;;13.80;99.90;;;;;;4977826;28;20038;-86
2022/12/22 09:49:49;;;;;;;77.28;52.63;;;13.80;99.90;;;;;;4994239;28;20428;-89
2022/12/22 09:52:34;;;;;;;70.53;53.47;;;13.80;99.90;;;;;;4976506;28;20247;-91
2022/12/22 09:55:01;;;;;;;87.20;60.33;;;13.80;99.90;;;;;;4992371;28;20034;-94
2022/12/22 09:57:30;;;;;;;81.95;53.90;;;13.80;99.90;;;;;;4977904;28;20090;-90
2022/12/22 10:00:09;;;;;;;78.07;57.25;;;13.90;99.90;;;;;;4993842;28;20049;-88
2022/12/22 10:02:56;;;;;;;78.65;58.15;;;13.80;99.90;;;;;;4987698;28;20419;-88
2022/12/22 10:05:37;;;;;;;78.53;52.97;;;13.90;99.90;;;;;;4996051;28;20049;-92
2022/12/22 10:08:14;;;;;;;70.97;54.40;;;13.90;99.90;;;;;;4979650;28;20034;-94
2022/12/22 10:10:40;;;;;;;79.43;54.28;;;13.90;99.90;;;;;;4980989;28;20030;-92
2022/12/22 10:13:10;;;;;;;68.80;52.17;;;13.80;99.90;;;;;;4978687;28;20037;-93
2022/12/22 10:15:38;;;;;;;78.00;55.75;;;13.90;99.90;;;;;;4981230;28;20054;-94
2022/12/22 10:18:09;;;;;;;72.93;56.38;;;13.90;99.90;;;;;;4978818;28;20026;-90
2022/12/22 10:20:38;;;;;;;70.90;51.20;;;13.90;99.90;;;;;;4995160;28;20045;-89
2022/12/22 10:23:25;;;;;;;71.22;51.10;;;13.90;99.90;;;;;;4992260;28;20050;-91
2022/12/22 10:25:54;;;;;;;76.88;55.42;;;13.90;99.90;;;;;;4994312;28;20061;-91
2022/12/22 10:28:39;;;;;;;69.68;60.13;;;14.00;99.90;;;;;;4994003;28;20033;-92
2022/12/22 10:31:18;;;;;;;80.95;59.33;;;14.00;99.90;;;;;;4962232;28;20034;-95
2022/12/22 10:33:46;;;;;;;79.28;58.17;;;14.00;99.90;;;;;;5000651;28;20022;-95
2022/12/22 10:36:26;;;;;;;71.85;57.45;;;14.00;99.90;;;;;;4962096;28;20035;-93
2022/12/22 10:39:09;;;;;;;83.72;62.45;;;14.00;99.90;;;;;;4976973;28;20013;-91
2022/12/22 10:41:38;;;;;;;73.53;59.42;;;14.00;99.90;;;;;;4979143;28;20042;-93
2022/12/22 10:44:18;;;;;;;72.80;59.40;;;14.00;99.90;;;;;;4979853;28;20034;-86
2022/12/22 10:46:49;;;;;;;68.35;59.15;;;14.10;99.90;;;;;;4973819;28;20034;-91
2022/12/22 10:49:22;;;;;;;79.57;61.67;;;14.10;99.90;;;;;;4975088;28;20276;-92
2022/12/22 10:52:07;;;;;;;78.40;63.75;;;14.10;99.90;;;;;;4993718;28;20031;-86
2022/12/22 10:54:37;;;;;;;77.50;58.45;;;14.10;99.90;;;;;;4994453;28;20027;-90
2022/12/22 10:57:12;;;;;;;76.38;62.65;;;14.10;99.90;;;;;;4974861;28;20030;-93
2022/12/22 10:59:54;;;;;;;70.93;54.90;;;14.10;99.90;;;;;;4996236;28;20037;-95
2022/12/22 11:02:20;;;;;;;67.57;39.42;;;14.10;99.90;;;;;;4998469;28;20042;-95
2022/12/22 11:04:46;;;;;;;54.78;31.98;;;14.10;99.90;;;;;;5164775;23;20068;-95
2022/12/22 11:07:13;;;;;;;57.90;31.42;;;14.10;99.90;;;;;;5021796;28;20018;-95
2022/12/22 11:09:39;;;;;;;56.72;29.60;;;14.10;99.90;;;;;;5001602;28;20387;-94
2022/12/22 11:12:11;;;;;;;59.42;28.92;;;14.00;99.90;;;;;;5020274;28;20467;-94
2022/12/22 11:15:01;;;;;;;73.18;29.55;;;14.00;99.90;;;;;;4998459;28;20033;-94
2022/12/22 11:17:43;;;;;;;64.07;28.95;;;14.00;99.90;;;;;;5015433;28;20042;-93
2022/12/22 11:20:33;;;;;;;55.20;29.23;;;14.00;99.90;;;;;;5013346;28;20041;-95
2022/12/22 11:23:02;;;;;;;73.72;29.30;;;14.00;99.90;;;;;;5012024;28;20042;-95
2022/12/22 11:25:37;;;;;;;69.25;32.03;;;14.00;99.90;;;;;;4998061;28;20034;-94
2022/12/22 11:28:09;;;;;;;62.08;29.20;;;13.90;99.90;;;;;;5012716;28;20032;-95
2022/12/22 11:30:45;;;;;;;61.13;30.60;;;13.90;99.90;;;;;;5011371;28;20034;-93
2022/12/22 11:33:14;;;;;;;54.17;31.15;;;14.00;99.90;;;;;;4994523;28;20475;-92
2022/12/22 11:35:49;;;;;;;67.22;31.10;;;14.00;99.90;;;;;;5013228;28;20037;-93
2022/12/22 11:38:56;;;;;;;52.42;32.10;;;13.90;99.90;;;;;;5013413;28;20038;-94
2022/12/22 11:41:41;;;;;;;63.55;30.55;;;13.90;99.90;;;;;;5010749;28;20026;-95
2022/12/22 11:44:21;;;;;;;46.58;31.42;;;13.90;99.90;;;;;;5013719;28;20060;-92
2022/12/22 11:47:12;;;;;;;55.53;32.28;;;14.00;99.90;;;;;;4979119;28;20049;-92
2022/12/22 11:50:02;;;;;;;58.10;30.80;;;14.00;99.90;;;;;;4975569;28;20061;-91
2022/12/22 11:52:35;;;;;;;59.28;31.35;;;14.00;99.90;;;;;;5018248;28;20026;-92
2022/12/22 11:55:10;;;;;;;58.47;35.47;;;14.00;99.90;;;;;;5010417;28;20022;-92
2022/12/22 11:57:57;;;;;;;74.40;43.47;;;14.00;99.90;;;;;;4993464;28;20061;-93
2022/12/22 12:00:24;;;;;;;58.47;46.13;;;14.00;99.90;;;;;;4993907;28;20043;-93
2022/12/22 12:02:55;;;;;;;55.00;40.95;;;14.10;99.90;;;;;;4976397;28;20046;-92
2022/12/22 12:05:24;;;;;;;58.70;40.72;;;14.10;99.90;;;;;;4993613;28;20047;-93
2022/12/22 12:07:55;;;;;;;49.05;39.67;;;14.00;99.90;;;;;;4994399;28;20030;-92
2022/12/22 12:10:21;;;;;;;;;;;14.00;99.90;;;;;;4996103;28;20042;-92
2022/12/22 12:13:00;;;;;;;52.33;33.88;;;14.10;99.90;;;;;;4996197;28;19906;-93
2022/12/22 12:15:28;;;;;;;47.83;32.75;;;14.10;99.90;;;;;;4981329;28;20360;-92
2022/12/22 12:18:12;;;;;;;42.80;32.95;;;14.10;99.90;;;;;;5004430;28;20030;-92
2022/12/22 12:21:00;;;;;;;49.35;32.13;;;14.10;99.90;;;;;;5010238;28;20033;-92
2022/12/22 12:23:45;;;;;;;41.55;31.58;;;14.10;99.90;;;;;;5016150;28;20367;-92
2022/12/22 12:26:18;;;;;;;46.47;30.95;;;14.10;99.90;;;;;;5013636;28;20022;-93
2022/12/22 12:28:50;;;;;;;42.33;36.13;;;14.10;99.90;;;;;;4982850;28;20049;-91
2022/12/22 12:31:16;;;;;;;40.75;36.05;;;14.10;99.90;;;;;;5017745;28;20034;-91
2022/12/22 12:33:51;;;;;;;57.55;45.08;;;14.10;99.90;;;;;;5005311;28;20486;-92
2022/12/22 12:36:31;;;;;;;77.75;49.33;;;14.10;99.90;;;;;;4999030;28;20046;-88
2022/12/22 12:39:03;;;;;;;48.05;38.13;;;14.10;99.90;;;;;;5018936;28;20038;-94
2022/12/22 12:41:39;;;;;;;56.92;42.45;;;14.10;99.90;;;;;;5003918;28;20105;-94
2022/12/22 12:44:05;;;;;;;48.00;43.15;;;14.10;99.90;;;;;;5003912;28;20057;-94
2022/12/22 12:46:50;;;;;;;50.80;44.90;;;14.10;99.90;;;;;;4986718;28;20348;-93
2022/12/22 12:49:34;;;;;;;48.55;42.13;;;14.10;99.90;;;;;;5003875;28;20030;-93
2022/12/22 12:52:01;;;;;;;44.88;40.17;;;14.10;99.90;;;;;;5019202;28;20046;-94
2022/12/22 12:54:46;;;;;;;40.83;36.75;;;14.00;99.90;;;;;;4986820;28;20042;-94
2022/12/22 12:57:22;;;;;;;44.38;39.92;;;14.00;99.90;;;;;;5004705;28;20041;-95
2022/12/22 12:59:49;;;;;;;42.90;38.33;;;14.00;99.90;;;;;;5007434;28;20034;-95
2022/12/22 13:02:28;;;;;;;40.95;36.92;;;14.00;99.90;;;;;;4985211;28;20388;-93
2022/12/22 13:05:28;;;;;;;45.47;40.85;;;14.00;99.90;;;;;;5011570;28;20057;-94
2022/12/22 13:08:14;;;;;;;41.88;38.03;;;14.00;99.90;;;;;;5019101;28;20057;-93
2022/12/22 13:10:42;;;;;;;43.13;39.67;;;14.00;99.90;;;;;;5020886;28;20533;-94
2022/12/22 13:13:23;;;;;;;43.00;39.05;;;14.10;99.90;;;;;;5003128;28;20042;-93
2022/12/22 13:15:59;;;;;;;45.47;41.42;;;14.10;99.90;;;;;;5018057;28;20406;-94
2022/12/22 13:18:25;;;;;;;42.40;38.78;;;14.10;99.90;;;;;;5016305;28;20038;-94
2022/12/22 13:21:02;;;;;;;46.17;41.78;;;14.10;99.90;;;;;;5014175;28;20034;-93
2022/12/22 13:23:39;;;;;;;44.28;40.45;;;14.10;99.90;;;;;;5013878;28;20513;-93
2022/12/22 13:26:12;;;;;;;40.85;37.35;;;14.10;99.90;;;;;;5013693;28;20372;-94
2022/12/22 13:28:39;;;;;;;41.40;38.05;;;14.10;99.90;;;;;;4999340;28;20053;-93
2022/12/22 13:31:22;;;;;;;38.88;35.85;;;14.10;99.90;;;;;;4997934;28;20034;-94
2022/12/22 13:34:00;;;;;;;44.25;40.92;;;14.10;99.90;;;;;;5015974;28;20034;-94
2022/12/22 13:36:27;;;;;;;40.55;37.63;;;14.10;99.90;;;;;;4993677;28;20038;-94
2022/12/22 13:39:00;;;;;;;40.50;37.55;;;14.10;99.90;;;;;;4995133;28;20410;-94
2022/12/22 13:41:27;;;;;;;44.60;40.88;;;14.10;99.90;;;;;;4998324;28;20052;-94
2022/12/22 13:43:57;;;;;;;41.75;38.55;;;14.10;99.90;;;;;;4999018;28;20414;-94
2022/12/22 13:46:24;;;;;;;42.50;39.00;;;14.10;99.90;;;;;;4997844;28;20038;-94
2022/12/22 13:48:50;;;;;;;41.95;38.20;;;14.10;99.90;;;;;;5000069;28;20033;-94
2022/12/22 13:51:25;;;;;;;37.63;35.13;;;14.10;99.90;;;;;;4995441;28;20041;-94
2022/12/22 13:53:55;;;;;;;37.15;34.83;;;14.10;99.90;;;;;;5001011;28;20046;-92
2022/12/22 13:56:26;;;;;;;34.88;32.20;;;14.10;99.90;;;;;;5013637;28;20483;-93
2022/12/22 13:58:56;;;;;;;42.80;39.92;;;14.10;99.90;;;;;;5013369;28;20041;-94
2022/12/22 14:01:23;;;;;;;42.65;40.03;;;14.20;99.90;;;;;;4961896;28;20037;-92
2022/12/22 14:03:51;;;;;;;49.90;46.22;;;14.20;99.90;;;;;;4993681;28;20046;-92
2022/12/22 14:06:34;;;;;;;41.78;39.17;;;14.20;99.90;;;;;;4997495;28;20479;-92
2022/12/22 14:09:23;;;;;;;45.17;42.35;;;14.20;99.90;;;;;;5010429;28;20037;-91
2022/12/22 14:12:02;;;;;;;32.17;30.45;;;14.20;99.90;;;;;;4978234;28;20049;-93
2022/12/22 14:14:39;;;;;;;33.25;31.27;;;14.20;99.90;;;;;;4961911;28;20043;-92
2022/12/22 14:17:18;;;;;;;27.17;25.67;;;14.20;99.90;;;;;;4961463;28;20376;-93
2022/12/22 14:19:45;;;;;;;28.60;26.83;;;14.30;99.90;;;;;;4983495;28;20498;-91
2022/12/22 14:22:17;;;;;;;27.75;25.83;;;14.30;99.90;;;;;;4980680;28;20034;-92
2022/12/22 14:24:53;;;;;;;24.52;23.15;;;14.30;99.90;;;;;;5001890;28;20050;-92
2022/12/22 14:27:53;;;;;;;26.60;25.05;;;14.30;99.90;;;;;;4999246;28;20038;-94
2022/12/22 14:30:20;;;;;;;26.60;24.77;;;14.30;99.90;;;;;;5010013;28;20045;-93
2022/12/22 14:32:51;;;;;;;23.05;21.75;;;14.40;99.90;;;;;;5006654;28;20040;-93
2022/12/22 14:35:20;;;;;;;23.52;22.13;;;14.40;99.90;;;;;;4997845;28;20041;-93
2022/12/22 14:37:50;;;;;;;27.20;25.67;;;14.40;99.90;;;;;;5013153;28;20042;-93
2022/12/22 14:40:36;;;;;;;25.35;23.95;;;14.50;99.90;;;;;;5012181;28;20041;-94
2022/12/22 14:43:15;;;;;;;26.70;25.23;;;14.50;99.90;;;;;;5013776;28;20033;-91
2022/12/22 14:45:41;;;;;;;28.30;26.45;;;14.50;99.90;;;;;;4999999;28;20045;-89
2022/12/22 14:48:08;;;;;;;24.30;22.90;;;14.50;99.90;;;;;;4976776;28;20480;-90
2022/12/22 14:50:34;;;;;;;27.13;25.55;;;14.50;99.90;;;;;;5008144;28;20042;-91
2022/12/22 14:53:02;;;;;;;28.75;27.15;;;14.50;99.90;;;;;;4995659;28;20027;-94
2022/12/22 14:55:33;;;;;;;27.65;26.10;;;14.50;99.90;;;;;;4990724;28;20017;-89
2022/12/22 14:58:28;;;;;;;36.25;34.33;;;14.50;99.90;;;;;;5004134;28;20044;-89
2022/12/22 15:01:23;;;;;;;38.22;36.22;;;14.60;99.90;;;;;;4993478;28;20026;-91
2022/12/22 15:04:00;;;;;;;32.28;30.52;;;14.60;99.90;;;;;;5010388;28;20061;-89
2022/12/22 15:06:26;;;;;;;36.92;34.67;;;14.60;99.90;;;;;;5012760;28;20113;-92
2022/12/22 15:09:12;;;;;;;31.15;29.35;;;14.60;99.90;;;;;;5011654;28;20050;-93
2022/12/22 15:11:51;;;;;;;36.95;34.95;;;14.60;99.90;;;;;;5005528;28;20047;-92
2022/12/22 15:14:24;;;;;;;38.75;36.58;;;14.60;99.90;;;;;;5012840;28;20755;-93
2022/12/22 15:16:54;;;;;;;51.55;48.75;;;14.70;99.90;;;;;;4997953;28;20033;-91
2022/12/22 15:19:21;;;;;;;47.33;44.28;;;14.70;99.90;;;;;;5015304;28;20057;-91
2022/12/22 15:21:48;;;;;;;49.42;46.67;;;14.70;99.90;;;;;;4999293;28;20356;-91
2022/12/22 15:24:15;;;;;;;49.67;47.00;;;14.70;99.90;;;;;;4995800;28;20061;-88
2022/12/22 15:26:41;;;;;;;48.22;45.00;;;14.70;99.90;;;;;;4995049;28;20040;-88
2022/12/22 15:29:08;;;;;;;44.97;42.58;;;14.70;99.90;;;;;;4995420;28;20025;-90
2022/12/22 15:31:34;;;;;;;48.45;45.58;;;14.70;99.90;;;;;;4994537;28;20068;-89
2022/12/22 15:34:01;;;;;;;44.85;42.05;;;14.70;99.90;;;;;;5012376;28;20255;-94
2022/12/22 15:36:27;;;;;;;43.08;40.47;;;14.80;99.90;;;;;;5013595;28;20041;-94
2022/12/22 15:38:53;;;;;;;48.72;46.08;;;14.70;99.90;;;;;;4999382;28;20038;-93
2022/12/22 15:41:19;;;;;;;42.30;39.95;;;14.70;99.90;;;;;;5003554;28;20045;-93
2022/12/22 15:43:46;;;;;;;44.08;41.60;;;14.70;99.90;;;;;;4999590;28;20050;-89
2022/12/22 15:46:14;;;;;;;44.67;41.97;;;14.80;99.90;;;;;;5015220;28;20038;-89
2022/12/22 15:48:40;;;;;;;43.97;41.50;;;14.70;99.90;;;;;;5013337;28;20042;-88
2022/12/22 15:51:09;;;;;;;43.88;41.38;;;14.70;99.90;;;;;;4984867;28;20038;-92
2022/12/22 15:53:36;;;;;;;42.42;39.95;;;14.70;99.90;;;;;;4979737;28;20059;-93
2022/12/22 15:56:02;;;;;;;56.42;53.42;;;14.80;99.90;;;;;;5003103;28;20054;-92
2022/12/22 15:58:31;;;;;;;44.45;42.20;;;14.70;99.90;;;;;;5000793;28;20045;-94
2022/12/22 16:00:57;;;;;;;47.10;44.55;;;14.70;99.90;;;;;;5001732;28;20038;-93
2022/12/22 16:03:23;;;;;;;45.28;42.88;;;14.70;99.90;;;;;;4996805;28;20042;-91
2022/12/22 16:05:51;;;;;;;63.47;60.03;;;14.80;99.90;;;;;;4989994;28;20042;-92
2022/12/22 16:08:37;;;;;;;49.72;46.92;;;14.70;99.90;;;;;;5000441;28;20042;-92
2022/12/22 16:11:04;;;;;;;44.97;42.33;;;14.70;99.90;;;;;;4998429;28;20045;-87
2022/12/22 16:13:31;;;;;;;45.63;43.00;;;14.70;99.90;;;;;;4994026;28;20034;-88
2022/12/22 16:15:57;;;;;;;47.90;45.35;;;14.70;99.90;;;;;;4994067;28;20498;-88
2022/12/22 16:18:23;;;;;;;44.75;42.42;;;14.70;99.90;;;;;;5008727;28;20041;-94
2022/12/22 16:20:49;;;;;;;41.42;39.13;;;14.70;99.90;;;;;;4994286;28;20054;-92
2022/12/22 16:23:17;;;;;;;45.30;42.83;;;14.70;99.90;;;;;;4980043;28;20485;-91
2022/12/22 16:25:43;;;;;;;39.78;37.53;;;14.70;99.90;;;;;;4994122;28;20068;-88